Time;durP1;ratioP1;P1;durP2;ratioP2;P2;SDS_P1;SDS_P2;PMS_P1;PMS_P2;Temp;Humidity;BMP_temperature;BMP_pressure;BME280_temperature;BME280_humidity;BME280_pressure;Samples;Min_cycle;Max_cycle;Signal;HPM_P1;HPM_P2
2022/04/11 00:02:01;;;;;;;22.17;14.45;;;;;;;4.09;75.83;101907.13;5113628;28;20391;-72
2022/04/11 00:04:28;;;;;;;20.92;14.10;;;;;;;4.07;75.86;101900.19;5113180;28;20035;-72
2022/04/11 00:06:53;;;;;;;19.27;13.55;;;;;;;4.09;75.95;101901.13;5105662;28;20467;-72
2022/04/11 00:09:21;;;;;;;20.48;14.52;;;;;;;4.07;77.03;101900.19;5112831;28;20077;-72
2022/04/11 00:11:47;;;;;;;20.70;13.40;;;;;;;4.04;76.18;101901.00;5113202;28;20035;-72
2022/04/11 00:14:13;;;;;;;23.13;14.63;;;;;;;3.98;75.03;101890.56;5112344;28;20100;-72
2022/04/11 00:16:39;;;;;;;23.17;14.45;;;;;;;3.98;75.15;101890.56;5108931;28;20043;-72
2022/04/11 00:19:05;;;;;;;22.30;14.43;;;;;;;3.99;75.93;101893.19;5110650;28;20054;-72
2022/04/11 00:21:30;;;;;;;25.35;14.32;;;;;;;4.02;76.80;101896.63;5106738;27;20480;-72
2022/04/11 00:23:55;;;;;;;34.05;15.23;;;;;;;4.03;76.45;101893.25;5111478;28;20165;-72
2022/04/11 00:26:21;;;;;;;27.45;15.00;;;;;;;4.01;76.14;101897.50;5111711;28;20076;-72
2022/04/11 00:28:46;;;;;;;26.00;14.68;;;;;;;4.01;75.59;101895.78;5109947;28;20055;-72
2022/04/11 00:31:11;;;;;;;34.63;15.02;;;;;;;4.02;76.45;101883.75;5109719;28;20036;-72
2022/04/11 00:33:36;;;;;;;34.15;15.38;;;;;;;4.03;77.16;101877.75;5096018;28;20020;-72
2022/04/11 00:36:02;;;;;;;30.60;15.00;;;;;;;4.04;76.61;101884.66;5103037;28;20020;-72
2022/04/11 00:38:27;;;;;;;28.73;14.80;;;;;;;4.05;76.27;101887.25;5102068;28;20039;-72
2022/04/11 00:40:52;;;;;;;31.90;15.57;;;;;;;4.07;77.11;101882.13;5110646;28;20026;-72
2022/04/11 00:43:35;;;;;;;30.98;15.73;;;;;;;4.08;76.18;101866.66;5111855;28;20026;-72
2022/04/11 00:46:01;;;;;;;38.30;16.20;;;;;;;4.05;77.62;101858.00;5110257;27;20039;-72
2022/04/11 00:48:26;;;;;;;32.70;16.13;;;;;;;4.08;77.85;101866.66;5110762;28;20046;-72
2022/04/11 00:50:58;;;;;;;40.88;16.45;;;;;;;4.07;76.91;101856.34;5112928;28;20483;-72
2022/04/11 00:53:24;;;;;;;35.70;15.73;;;;;;;4.02;77.98;101851.06;5108206;28;20080;-72
2022/04/11 00:55:52;;;;;;;36.97;16.35;;;;;;;4.07;76.74;101851.16;5103425;28;20028;-72
2022/04/11 00:58:18;;;;;;;40.22;16.00;;;;;;;4.05;77.54;101853.69;5098108;28;20491;-72
2022/04/11 01:00:44;;;;;;;38.72;15.63;;;;;;;4.05;77.32;101856.28;5105611;28;20099;-72
2022/04/11 01:03:09;;;;;;;36.08;15.25;;;;;;;4.05;74.48;101845.97;5095650;28;20138;-73
2022/04/11 01:05:35;;;;;;;35.97;15.02;;;;;;;4.04;74.87;101851.09;5108163;28;20118;-72
2022/04/11 01:08:05;;;;;;;44.65;16.23;;;;;;;4.03;75.48;101857.97;5106754;28;20542;-72
2022/04/11 01:10:30;;;;;;;32.83;15.77;;;;;;;4.02;75.61;101848.47;5109267;28;20024;-72
2022/04/11 01:12:56;;;;;;;35.42;15.27;;;;;;;4.02;76.65;101845.03;5098947;28;20032;-72
2022/04/11 01:15:21;;;;;;;34.17;15.85;;;;;;;4.04;77.26;101845.94;5103632;28;20034;-72
2022/04/11 01:17:47;;;;;;;28.55;14.88;;;;;;;4.03;76.91;101841.63;5102593;28;20103;-72
2022/04/11 01:20:19;;;;;;;34.35;15.65;;;;;;;4.02;78.11;101847.63;5099731;28;20109;-72
2022/04/11 01:22:45;;;;;;;34.53;15.13;;;;;;;3.99;77.26;101841.56;5097089;28;20034;-72
2022/04/11 01:25:10;;;;;;;37.10;15.95;;;;;;;3.96;77.14;101833.78;5107090;28;20090;-72
2022/04/11 01:27:37;;;;;;;37.13;15.75;;;;;;;3.96;77.69;101840.66;5101914;28;20076;-72
2022/04/11 01:30:03;;;;;;;31.88;14.88;;;;;;;3.94;77.27;101843.19;5099156;28;20083;-72
2022/04/11 01:32:29;;;;;;;31.27;14.85;;;;;;;3.92;77.08;101844.88;5109471;28;20024;-72
2022/04/11 01:34:55;;;;;;;33.55;14.50;;;;;;;3.90;76.56;101845.69;5107054;28;20088;-72
2022/04/11 01:37:20;;;;;;;28.58;14.55;;;;;;;3.88;76.58;101837.03;5102834;28;20499;-72
2022/04/11 01:39:46;;;;;;;28.90;15.10;;;;;;;3.87;77.19;101845.63;5109838;28;20141;-72
2022/04/11 01:42:11;;;;;;;33.65;15.75;;;;;;;3.88;78.56;101845.63;5111444;28;20038;-72
2022/04/11 01:44:36;;;;;;;26.80;14.60;;;;;;;3.86;77.86;101849.91;5109065;28;20096;-72
2022/04/11 01:47:02;;;;;;;31.13;15.60;;;;;;;3.85;77.79;101850.72;5094309;28;20071;-72
2022/04/11 01:49:27;;;;;;;28.35;14.23;;;;;;;3.84;78.91;101843.84;5105941;28;20028;-72
2022/04/11 01:51:52;;;;;;;30.65;14.77;;;;;;;3.81;78.02;101850.66;5107596;28;20042;-72
2022/04/11 01:54:18;;;;;;;29.80;15.07;;;;;;;3.80;78.44;101848.91;5111326;28;20024;-72
2022/04/11 01:56:43;;;;;;;26.05;14.10;;;;;;;3.77;77.68;101846.28;5107394;28;20031;-72
2022/04/11 01:59:08;;;;;;;26.00;15.02;;;;;;;3.73;78.10;101843.63;5096181;28;20077;-72
2022/04/11 02:01:34;;;;;;;29.80;14.50;;;;;;;3.68;77.66;101834.91;5109778;28;20383;-72
2022/04/11 02:03:59;;;;;;;21.77;14.20;;;;;;;3.67;78.84;101833.19;5110545;28;20372;-72
2022/04/11 02:06:24;;;;;;;23.83;14.88;;;;;;;3.63;78.78;101835.66;5098604;28;20081;-72
2022/04/11 02:08:50;;;;;;;26.05;14.13;;;;;;;3.60;80.02;101841.63;5110599;28;20106;-72
2022/04/11 02:11:15;;;;;;;26.58;15.38;;;;;;;3.57;79.44;101828.69;5115419;28;20028;-72
2022/04/11 02:13:41;;;;;;;25.30;14.55;;;;;;;3.51;79.19;101833.69;5116157;28;20085;-72
2022/04/11 02:16:06;;;;;;;27.65;14.88;;;;;;;3.43;79.86;101823.25;5098516;28;20099;-72
2022/04/11 02:18:31;;;;;;;25.92;14.73;;;;;;;3.42;79.78;101830.91;5097942;28;20172;-72
2022/04/11 02:20:57;;;;;;;24.45;14.23;;;;;;;3.37;80.47;101836.00;5097628;28;20479;-72
2022/04/11 02:23:22;;;;;;;25.73;14.48;;;;;;;3.31;79.88;101833.28;5102879;28;20494;-72
2022/04/11 02:25:48;;;;;;;26.88;16.10;;;;;;;3.26;80.31;101837.44;5118575;28;20028;-72
2022/04/11 02:28:13;;;;;;;25.60;15.30;;;;;;;3.17;79.59;101834.66;5117829;28;20479;-72
2022/04/11 02:30:39;;;;;;;24.15;14.20;;;;;;;3.13;79.94;101836.28;5118471;27;20028;-72
2022/04/11 02:33:04;;;;;;;23.88;14.15;;;;;;;3.08;80.77;101843.06;5098335;28;20104;-72
2022/04/11 02:35:30;;;;;;;21.23;14.63;;;;;;;3.06;80.56;101837.00;5097432;28;20107;-72
2022/04/11 02:37:55;;;;;;;23.80;14.73;;;;;;;3.04;81.17;101833.50;5098122;28;20040;-72
2022/04/11 02:40:21;;;;;;;21.80;14.32;;;;;;;2.98;80.84;101839.41;5097398;28;20020;-72
2022/04/11 02:42:46;;;;;;;23.45;14.10;;;;;;;2.93;81.32;101830.69;5098124;28;20028;-72
2022/04/11 02:45:13;;;;;;;24.17;14.35;;;;;;;2.88;81.81;101837.44;5097896;28;20034;-72
2022/04/11 02:47:39;;;;;;;24.48;15.05;;;;;;;2.81;81.29;101839.00;5097669;28;20109;-72
2022/04/11 02:50:05;;;;;;;20.95;13.98;;;;;;;2.76;81.44;101839.72;5098068;28;20467;-72
2022/04/11 02:52:30;;;;;;;22.40;14.35;;;;;;;2.70;82.64;101831.84;5097823;28;20043;-72
2022/04/11 02:54:56;;;;;;;19.55;13.88;;;;;;;2.66;80.72;101835.19;5097240;28;20039;-72
2022/04/11 02:57:23;;;;;;;22.00;14.40;;;;;;;2.63;81.73;101835.09;5097570;28;20491;-72
2022/04/11 02:59:50;;;;;;;20.50;14.43;;;;;;;2.56;81.68;101834.06;5105154;28;20051;-71
2022/04/11 03:02:15;;;;;;;19.02;14.73;;;;;;;2.48;81.30;101840.72;5115994;27;20030;-72
2022/04/11 03:04:40;;;;;;;23.75;13.77;;;;;;;2.44;82.38;101826.91;5105601;28;20024;-72
2022/04/11 03:07:05;;;;;;;23.42;14.00;;;;;;;2.39;82.05;101822.44;5107973;28;20081;-72
2022/04/11 03:09:31;;;;;;;20.20;14.98;;;;;;;2.37;83.13;101826.72;5106398;28;20390;-72
2022/04/11 03:11:56;;;;;;;21.98;14.07;;;;;;;2.33;82.40;101820.63;5117326;28;20554;-72
2022/04/11 03:14:22;;;;;;;20.63;14.27;;;;;;;2.25;82.25;101819.53;5116108;27;20091;-72
2022/04/11 03:16:48;;;;;;;18.20;14.27;;;;;;;2.24;82.99;101823.81;5102386;27;20478;-72
2022/04/11 03:19:13;;;;;;;21.88;14.18;;;;;;;2.24;83.54;101821.25;5118245;27;20115;-72
2022/04/11 03:21:38;;;;;;;22.80;14.52;;;;;;;2.19;84.39;101822.84;5113849;28;20567;-72
2022/04/11 03:24:04;;;;;;;23.52;15.45;;;;;;;2.17;83.66;101823.63;5110111;28;20106;-72
2022/04/11 03:26:29;;;;;;;21.48;15.52;;;;;;;2.09;83.42;101815.69;5111984;28;20105;-71
2022/04/11 03:28:54;;;;;;;21.90;15.52;;;;;;;2.09;85.09;101823.41;5114095;28;20022;-72
2022/04/11 03:31:20;;;;;;;25.50;15.07;;;;;;;2.03;85.54;101820.69;5112577;28;20029;-71
2022/04/11 03:33:45;;;;;;;22.35;15.98;;;;;;;2.01;84.96;101823.19;5110866;28;20063;-72
2022/04/11 03:36:11;;;;;;;21.65;14.90;;;;;;;1.96;84.76;101823.91;5113892;28;20035;-72
2022/04/11 03:38:36;;;;;;;24.60;16.05;;;;;;;1.93;85.86;101817.00;5110421;28;20391;-71
2022/04/11 03:41:02;;;;;;;20.70;14.82;;;;;;;1.90;85.19;101828.88;5113048;28;20020;-72
2022/04/11 03:43:27;;;;;;;21.52;14.93;;;;;;;1.87;85.53;101819.38;5112755;28;20027;-72
2022/04/11 03:45:53;;;;;;;19.90;15.48;;;;;;;1.84;85.76;101829.59;5113584;28;20505;-71
2022/04/11 03:48:18;;;;;;;22.40;15.52;;;;;;;1.79;84.77;101833.72;5112319;28;20080;-72
2022/04/11 03:50:44;;;;;;;20.63;15.30;;;;;;;1.77;85.83;101832.81;5113482;28;20051;-72
2022/04/11 03:53:09;;;;;;;19.75;15.65;;;;;;;1.75;85.92;101830.19;5109393;28;20024;-72
2022/04/11 03:55:35;;;;;;;22.08;15.27;;;;;;;1.76;85.92;101836.19;5113402;28;20039;-71
2022/04/11 03:58:00;;;;;;;21.48;15.95;;;;;;;1.74;86.34;101831.03;5105431;28;20024;-72
2022/04/11 04:00:26;;;;;;;20.70;15.43;;;;;;;1.74;86.12;101832.72;5113158;28;20032;-71
2022/04/11 04:02:51;;;;;;;23.60;16.38;;;;;;;1.72;85.79;101829.22;5113283;27;20039;-72
2022/04/11 04:05:17;;;;;;;23.02;15.98;;;;;;;1.68;86.19;101828.28;5108832;28;20035;-72
2022/04/11 04:07:42;;;;;;;21.55;16.05;;;;;;;1.59;86.81;101821.16;5111990;28;20031;-72
2022/04/11 04:10:08;;;;;;;20.35;15.88;;;;;;;1.58;86.11;101831.41;5114322;28;20079;-72
2022/04/11 04:12:33;;;;;;;21.95;16.55;;;;;;;1.56;87.15;101822.78;5112125;28;20036;-72
2022/04/11 04:15:00;;;;;;;22.73;16.63;;;;;;;1.55;87.61;101818.47;5112996;28;20107;-72
2022/04/11 04:17:25;;;;;;;22.42;15.65;;;;;;;1.52;86.43;101820.94;5109865;28;20038;-72
2022/04/11 04:19:50;;;;;;;22.85;15.90;;;;;;;1.48;86.90;101819.13;5101754;28;20032;-72
2022/04/11 04:22:16;;;;;;;22.88;16.10;;;;;;;1.45;86.81;101808.75;5110242;28;20092;-72
2022/04/11 04:24:41;;;;;;;22.30;15.70;;;;;;;1.43;86.92;101816.41;5113488;28;20027;-72
2022/04/11 04:27:07;;;;;;;23.73;15.90;;;;;;;1.38;87.82;101807.69;5113110;28;20495;-72
2022/04/11 04:29:33;;;;;;;21.58;16.55;;;;;;;1.36;87.32;101814.47;5112781;28;20023;-72
2022/04/11 04:31:59;;;;;;;25.55;16.88;;;;;;;1.31;88.32;101809.22;5093017;28;20028;-72
2022/04/11 04:34:25;;;;;;;25.77;17.00;;;;;;;1.27;87.67;101812.50;5091921;28;20099;-71
2022/04/11 04:36:52;;;;;;;22.73;16.33;;;;;;;1.27;88.60;101804.78;5096253;28;20438;-71
2022/04/11 04:39:17;;;;;;;23.02;15.80;;;;;;;1.26;88.25;101808.19;5113422;28;20079;-71
2022/04/11 04:41:42;;;;;;;24.30;16.52;;;;;;;1.28;88.59;101813.41;5112500;28;20110;-71
2022/04/11 04:44:08;;;;;;;26.35;16.75;;;;;;;1.25;88.30;101811.59;5113558;28;20024;-71
2022/04/11 04:46:34;;;;;;;23.45;17.08;;;;;;;1.27;88.83;101803.94;5112195;28;20019;-71
2022/04/11 04:48:59;;;;;;;23.50;17.10;;;;;;;1.25;89.13;101805.59;5092190;28;20103;-72
2022/04/11 04:51:24;;;;;;;22.35;17.30;;;;;;;1.22;88.38;101805.50;5092483;28;20044;-72
2022/04/11 04:53:50;;;;;;;24.42;16.98;;;;;;;1.22;88.78;101801.22;5092781;28;20474;-71
2022/04/11 04:56:15;;;;;;;29.15;17.55;;;;;;;1.19;89.34;101806.28;5092170;28;20028;-72
2022/04/11 04:58:41;;;;;;;23.65;16.63;;;;;;;1.19;89.22;101810.53;5092526;28;20031;-71
2022/04/11 05:01:06;;;;;;;25.42;17.83;;;;;;;1.20;89.39;101802.00;5092033;28;20471;-71
2022/04/11 05:03:31;;;;;;;24.48;17.35;;;;;;;1.20;89.44;101807.13;5092923;28;20107;-72
2022/04/11 05:05:57;;;;;;;27.45;18.50;;;;;;;1.22;88.79;101802.94;5092406;28;20401;-71
2022/04/11 05:08:22;;;;;;;25.42;17.08;;;;;;;1.22;89.61;101802.94;5091642;28;20482;-72
2022/04/11 05:10:47;;;;;;;28.95;18.08;;;;;;;1.21;89.04;101802.06;5092435;28;20077;-72
2022/04/11 05:13:13;;;;;;;24.83;18.05;;;;;;;1.20;90.03;101794.28;5093781;28;20028;-71
2022/04/11 05:15:39;;;;;;;22.30;17.55;;;;;;;1.19;89.86;101792.56;5111858;28;20498;-71
2022/04/11 05:18:05;;;;;;;24.45;18.05;;;;;;;1.24;89.71;101793.56;5112838;28;20024;-72
2022/04/11 05:20:30;;;;;;;28.55;18.35;;;;;;;1.24;89.38;101794.41;5101799;28;20043;-72
2022/04/11 05:22:55;;;;;;;30.05;18.80;;;;;;;1.24;89.39;101794.41;5096170;28;20031;-72
2022/04/11 05:25:21;;;;;;;32.15;19.17;;;;;;;1.30;89.18;101788.59;5091990;28;20028;-72
2022/04/11 05:27:46;;;;;;;33.85;18.00;;;;;;;1.35;90.30;101792.19;5093770;28;20028;-72
2022/04/11 05:30:11;;;;;;;27.70;17.85;;;;;;;1.42;89.81;101790.69;5099980;28;20512;-72
2022/04/11 05:32:37;;;;;;;27.75;19.45;;;;;;;1.47;89.31;101795.13;5112497;28;20031;-72
2022/04/11 05:35:02;;;;;;;29.45;19.42;;;;;;;1.55;90.16;101785.06;5112452;28;20035;-72
2022/04/11 05:37:28;;;;;;;25.55;17.92;;;;;;;1.59;90.41;101792.88;5111164;28;20024;-72
2022/04/11 05:39:53;;;;;;;31.73;19.02;;;;;;;1.63;89.82;101794.75;5092446;28;20024;-72
2022/04/11 05:42:18;;;;;;;27.88;18.60;;;;;;;1.71;89.97;101788.94;5092238;28;20032;-72
2022/04/11 05:44:43;;;;;;;27.88;18.77;;;;;;;1.78;89.74;101786.56;5090651;28;20492;-72
2022/04/11 05:47:09;;;;;;;27.20;18.25;;;;;;;1.84;89.93;101789.31;5105324;28;20023;-72
2022/04/11 05:49:34;;;;;;;30.27;18.25;;;;;;;1.95;89.94;101784.44;5112024;28;20032;-72
2022/04/11 05:52:00;;;;;;;27.35;18.63;;;;;;;2.03;89.97;101785.53;5111218;28;20043;-72
2022/04/11 05:54:25;;;;;;;27.55;18.08;;;;;;;2.17;89.61;101779.88;5113215;28;20056;-72
2022/04/11 05:56:52;;;;;;;28.45;18.92;;;;;;;2.26;89.81;101782.69;5092104;28;20032;-72
2022/04/11 05:59:17;;;;;;;27.33;18.60;;;;;;;2.39;88.83;101791.56;5090920;28;20468;-71
2022/04/11 06:01:43;;;;;;;23.52;17.20;;;;;;;2.51;88.19;101785.03;5091404;28;20035;-71
2022/04/11 06:04:08;;;;;;;23.42;16.38;;;;;;;2.65;86.79;101785.38;5091770;28;20158;-71
2022/04/11 06:06:33;;;;;;;23.27;16.10;;;;;;;2.80;85.59;101780.56;5090832;28;20039;-71
2022/04/11 06:08:59;;;;;;;21.50;16.08;;;;;;;2.96;84.85;101783.53;5091636;28;20099;-72
2022/04/11 06:11:24;;;;;;;24.23;15.75;;;;;;;3.08;84.91;101782.94;5090627;28;20024;-72
2022/04/11 06:13:49;;;;;;;27.75;16.35;;;;;;;3.20;84.81;101775.44;5092039;28;20028;-71
2022/04/11 06:16:15;;;;;;;21.90;15.73;;;;;;;3.33;83.63;101781.75;5091228;28;20028;-72
2022/04/11 06:18:40;;;;;;;23.13;14.95;;;;;;;3.45;82.04;101787.16;5090741;28;20032;-72
2022/04/11 06:21:06;;;;;;;21.63;15.27;;;;;;;3.60;82.17;101784.91;5091840;28;20533;-71
2022/04/11 06:23:31;;;;;;;20.60;14.48;;;;;;;3.74;81.62;101780.03;5103503;28;20023;-72
2022/04/11 06:25:57;;;;;;;20.02;15.05;;;;;;;3.87;80.24;101786.28;5110984;28;20031;-72
2022/04/11 06:28:22;;;;;;;22.52;15.23;;;;;;;3.94;79.95;101781.25;5109718;28;20368;-72
2022/04/11 06:30:47;;;;;;;24.58;15.20;;;;;;;4.03;79.81;101765.09;5098674;28;20032;-72
2022/04/11 06:33:13;;;;;;;18.90;13.40;;;;;;;4.21;77.77;101769.69;5111124;28;20034;-72
2022/04/11 06:35:38;;;;;;;21.00;13.93;;;;;;;4.27;77.59;101772.38;5111470;28;20028;-72
2022/04/11 06:38:03;;;;;;;20.42;13.80;;;;;;;4.40;76.83;101779.50;5110971;28;20035;-72
2022/04/11 06:40:29;;;;;;;17.75;13.45;;;;;;;4.50;76.33;101783.09;5108811;28;20166;-72
2022/04/11 06:42:54;;;;;;;17.17;13.07;;;;;;;4.56;75.46;101778.03;5109256;28;20035;-72
2022/04/11 06:45:19;;;;;;;19.58;12.88;;;;;;;4.67;75.70;101785.94;5097810;28;20131;-72
2022/04/11 06:47:47;;;;;;;17.75;13.38;;;;;;;4.74;74.10;101774.00;5109992;28;20410;-72
2022/04/11 06:50:13;;;;;;;21.77;12.57;;;;;;;4.84;74.35;101783.63;5109512;28;20039;-72
2022/04/11 06:52:38;;;;;;;17.55;12.75;;;;;;;4.92;74.23;101777.75;5106763;28;20077;-72
2022/04/11 06:55:04;;;;;;;20.85;12.80;;;;;;;5.02;74.48;101788.22;5109289;28;20080;-72
2022/04/11 06:57:29;;;;;;;21.00;12.65;;;;;;;5.09;74.61;101784.88;5093627;28;20035;-72
2022/04/11 06:59:54;;;;;;;17.38;11.85;;;;;;;5.22;72.71;101791.06;5104609;28;20035;-72
2022/04/11 07:02:21;;;;;;;14.40;11.02;;;;;;;5.34;72.38;101789.53;5112690;28;20031;-72
2022/04/11 07:04:46;;;;;;;16.50;10.80;;;;;;;5.48;70.27;101797.44;5104616;28;20441;-72
2022/04/11 07:07:11;;;;;;;12.88;10.85;;;;;;;5.57;70.34;101789.81;5111622;28;20024;-72
2022/04/11 07:09:37;;;;;;;19.30;11.00;;;;;;;5.67;69.69;101780.44;5114271;28;20475;-72
2022/04/11 07:12:02;;;;;;;19.80;11.05;;;;;;;5.79;70.43;101783.19;5111839;27;20034;-72
2022/04/11 07:14:28;;;;;;;21.92;11.07;;;;;;;5.89;68.70;101785.88;5106318;28;20062;-72
2022/04/11 07:16:53;;;;;;;14.25;9.73;;;;;;;5.99;69.80;101774.81;5109950;27;20052;-72
2022/04/11 07:19:21;;;;;;;17.75;9.75;;;;;;;6.08;68.95;101769.69;5113660;28;20446;-72
2022/04/11 07:21:47;;;;;;;13.57;8.90;;;;;;;6.17;68.81;101771.50;5104406;28;20031;-72
2022/04/11 07:24:13;;;;;;;12.48;8.20;;;;;;;6.24;67.91;101768.97;5105087;27;20020;-72
2022/04/11 07:26:40;;;;;;;13.18;8.25;;;;;;;6.36;65.73;101764.78;5109788;27;20027;-72
2022/04/11 07:29:06;;;;;;;12.38;7.72;;;;;;;6.48;65.61;101762.31;5126462;27;20024;-72
2022/04/11 07:31:31;;;;;;;17.42;8.32;;;;;;;6.62;65.22;101770.19;5132499;27;20054;-72
2022/04/11 07:33:56;;;;;;;10.10;7.63;;;;;;;6.71;64.68;101750.38;5119472;27;20042;-72
2022/04/11 07:36:21;;;;;;;10.77;7.15;;;;;;;6.86;64.16;101759.09;5115179;27;20039;-72
2022/04/11 07:38:47;;;;;;;10.55;7.90;;;;;;;6.96;65.04;101751.38;5117037;27;20106;-72
2022/04/11 07:41:12;;;;;;;14.77;7.85;;;;;;;7.07;64.13;101753.19;5122641;27;20068;-72
2022/04/11 07:43:37;;;;;;;8.82;7.20;;;;;;;7.07;63.23;101735.91;5118331;27;20394;-72
2022/04/11 07:46:05;;;;;;;12.15;7.05;;;;;;;7.21;62.68;101741.16;5113563;28;20098;-72
2022/04/11 07:48:30;;;;;;;11.70;7.90;;;;;;;7.28;64.42;101740.31;5115438;27;20049;-72
2022/04/11 07:50:56;;;;;;;13.65;8.18;;;;;;;7.39;63.96;101742.97;5113475;28;20420;-72
2022/04/11 07:53:22;;;;;;;12.38;7.45;;;;;;;7.55;62.28;101747.34;5114187;28;20026;-72
2022/04/11 07:55:47;;;;;;;9.88;6.90;;;;;;;7.67;61.00;101739.59;5112288;28;20028;-72
2022/04/11 07:58:13;;;;;;;9.85;6.85;;;;;;;7.80;61.25;101730.13;5113301;28;20043;-73
2022/04/11 08:00:39;;;;;;;12.30;6.80;;;;;;;7.92;59.27;101726.69;5106336;27;20028;-72
2022/04/11 08:03:04;;;;;;;9.30;6.50;;;;;;;8.03;59.06;101732.75;5109548;28;20102;-72
2022/04/11 08:05:29;;;;;;;9.88;6.72;;;;;;;8.12;58.69;101727.56;5098446;28;20063;-73
2022/04/11 08:07:54;;;;;;;14.35;6.68;;;;;;;8.19;60.09;101721.50;5113873;28;20023;-73
2022/04/11 08:10:21;;;;;;;9.32;6.53;;;;;;;8.30;60.44;101723.25;5113335;28;20023;-72
2022/04/11 08:12:54;;;;;;;12.10;6.90;;;;;;;8.40;59.26;101719.81;5112954;28;20432;-72
2022/04/11 08:15:20;;;;;;;11.60;6.72;;;;;;;8.48;58.95;101712.03;5112773;28;20111;-72
2022/04/11 08:17:46;;;;;;;11.32;6.30;;;;;;;8.57;58.88;101718.09;5113842;28;20019;-72
2022/04/11 08:20:11;;;;;;;13.77;6.45;;;;;;;8.71;58.00;101710.25;5112239;28;20020;-72
2022/04/11 08:22:36;;;;;;;9.07;6.15;;;;;;;8.78;57.79;101706.75;5113788;28;20027;-72
2022/04/11 08:25:02;;;;;;;15.82;7.03;;;;;;;8.84;56.83;101711.09;5109727;28;20044;-73
2022/04/11 08:27:27;;;;;;;9.50;6.43;;;;;;;8.97;57.53;101706.72;5103033;28;20051;-72
2022/04/11 08:29:52;;;;;;;8.05;6.57;;;;;;;9.09;55.76;101704.97;5103179;28;20107;-72
2022/04/11 08:32:18;;;;;;;10.43;6.30;;;;;;;9.18;55.96;101701.44;5099596;27;20040;-73
2022/04/11 08:34:44;;;;;;;9.93;6.30;;;;;;;9.25;55.88;101697.94;5105151;28;20020;-72
2022/04/11 08:37:09;;;;;;;12.27;5.90;;;;;;;9.38;56.62;101701.34;5107799;28;20051;-73
2022/04/11 08:39:34;;;;;;;7.38;5.68;;;;;;;9.45;54.10;101692.66;5112617;28;20423;-73
2022/04/11 08:42:01;;;;;;;11.27;5.55;;;;;;;9.50;53.51;101690.88;5102625;28;20032;-72
2022/04/11 08:44:27;;;;;;;8.80;5.95;;;;;;;9.63;54.74;101694.28;5097849;28;20034;-72
2022/04/11 08:46:59;;;;;;;7.93;5.30;;;;;;;9.70;54.28;101705.53;5117488;27;20035;-73
2022/04/11 08:49:25;;;;;;;8.95;5.30;;;;;;;9.80;55.53;101696.78;5112790;28;20024;-74
2022/04/11 08:51:50;;;;;;;11.18;5.55;;;;;;;9.86;52.85;101696.72;5113350;27;20050;-72
2022/04/11 08:54:16;;;;;;;9.07;5.35;;;;;;;9.95;54.03;101696.69;5112315;28;20023;-72
2022/04/11 08:56:41;;;;;;;11.93;5.63;;;;;;;10.03;51.35;101694.88;5112919;28;20444;-72
2022/04/11 08:59:06;;;;;;;6.45;4.07;;;;;;;10.09;51.62;101686.16;5113314;28;20024;-73
2022/04/11 09:01:34;;;;;;;9.30;4.60;;;;;;;10.22;51.90;101697.34;5112014;28;20035;-72
2022/04/11 09:04:00;;;;;;;7.60;4.18;;;;;;;10.28;49.96;101699.94;5108126;28;20085;-72
2022/04/11 09:06:26;;;;;;;8.10;4.35;;;;;;;10.38;50.12;101696.34;5108801;28;20032;-73
2022/04/11 09:08:54;;;;;;;7.15;4.32;;;;;;;10.50;49.90;101691.03;5094070;27;20024;-73
2022/04/11 09:11:28;;;;;;;6.65;3.80;;;;;;;10.64;49.10;101688.28;5090759;28;20059;-73
2022/04/11 09:13:54;;;;;;;8.60;3.90;;;;;;;10.83;50.92;101686.34;5091604;28;20391;-73
2022/04/11 09:16:19;;;;;;;8.68;4.47;;;;;;;10.95;50.81;101686.22;5090070;28;20028;-73
2022/04/11 09:18:46;;;;;;;7.28;3.95;;;;;;;11.05;48.41;101680.88;5094443;28;20024;-72
2022/04/11 09:21:12;;;;;;;7.55;4.05;;;;;;;11.13;49.42;101677.28;5089339;28;20024;-72
2022/04/11 09:23:37;;;;;;;6.97;4.18;;;;;;;11.26;49.29;101675.41;5130138;27;20493;-73
2022/04/11 09:26:16;;;;;;;4.85;3.28;;;;;;;11.43;48.14;101667.34;5113180;27;20034;-73
2022/04/11 09:28:41;;;;;;;4.90;3.70;;;;;;;11.64;47.23;101668.75;5113443;27;20092;-73
2022/04/11 09:31:07;;;;;;;5.80;3.78;;;;;;;11.74;46.68;101654.72;5112641;28;20024;-73
2022/04/11 09:33:39;;;;;;;5.35;3.53;;;;;;;11.80;46.63;101651.97;5112153;28;20020;-73
2022/04/11 09:36:05;;;;;;;3.50;3.08;;;;;;;11.79;44.40;101649.41;5103773;28;20490;-75
2022/04/11 09:38:39;;;;;;;5.45;3.33;;;;;;;11.91;45.97;101642.25;5096093;28;20027;-73
2022/04/11 09:41:07;;;;;;;8.23;3.70;;;;;;;12.07;45.67;101642.03;5111632;28;20084;-73
2022/04/11 09:43:34;;;;;;;7.47;3.80;;;;;;;12.18;44.41;101643.53;5111333;28;20023;-73
2022/04/11 09:46:02;;;;;;;6.18;3.30;;;;;;;12.29;43.69;101639.88;5112110;28;20028;-73
2022/04/11 09:48:29;;;;;;;4.28;3.40;;;;;;;12.36;42.90;101644.09;5111986;28;20023;-73
2022/04/11 09:50:56;;;;;;;6.97;3.72;;;;;;;12.37;41.24;101651.06;5111223;28;20044;-73
2022/04/11 09:53:23;;;;;;;6.60;3.50;;;;;;;12.44;43.30;101636.13;5112200;28;20023;-73
2022/04/11 09:55:51;;;;;;;4.72;3.45;;;;;;;12.44;41.14;101630.91;5111752;28;20119;-73
2022/04/11 09:58:22;;;;;;;5.15;3.13;;;;;;;12.47;43.08;101641.31;5111511;28;20055;-73
2022/04/11 10:00:50;;;;;;;5.18;3.70;;;;;;;12.46;41.59;101629.09;5112162;28;20023;-73
2022/04/11 10:03:16;;;;;;;6.55;3.72;;;;;;;12.56;42.29;101625.44;5111977;28;20030;-73
2022/04/11 10:05:42;;;;;;;5.50;3.10;;;;;;;12.60;42.03;101617.50;5111260;28;20032;-73
2022/04/11 10:08:10;;;;;;;7.95;3.20;;;;;;;12.70;42.47;101627.78;5112366;28;20506;-73
2022/04/11 10:10:39;;;;;;;6.20;3.30;;;;;;;12.81;42.24;101626.66;5111514;28;20020;-73
2022/04/11 10:13:11;;;;;;;4.65;3.35;;;;;;;12.96;43.03;101624.66;5112426;28;20019;-73
2022/04/11 10:15:37;;;;;;;9.43;4.00;;;;;;;13.05;42.70;101611.38;5111787;28;20039;-74
2022/04/11 10:18:04;;;;;;;6.07;3.42;;;;;;;13.06;39.86;101615.69;5111613;28;20115;-73
2022/04/11 10:20:33;;;;;;;6.30;3.40;;;;;;;13.08;40.53;101621.78;5111832;28;20032;-73
2022/04/11 10:23:35;;;;;;;6.85;3.83;;;;;;;13.16;41.46;101611.13;5111881;28;20487;-73
2022/04/11 10:26:11;;;;;;;6.35;3.75;;;;;;;13.26;39.62;101613.53;5097542;28;20070;-73
2022/04/11 10:28:46;;;;;;;8.15;3.78;;;;;;;13.41;41.72;101601.88;5111857;28;20039;-73
2022/04/11 10:31:13;;;;;;;5.43;3.55;;;;;;;13.63;42.86;101602.19;5111881;28;20035;-73
2022/04/11 10:33:49;;;;;;;7.65;3.45;;;;;;;13.81;39.52;101595.66;5114612;28;20387;-73
2022/04/11 10:36:36;;;;;;;8.95;4.00;;;;;;;14.01;42.13;101608.25;5115249;27;20050;-74
2022/04/11 10:39:16;;;;;;;7.30;4.32;;;;;;;14.05;40.92;101604.66;5116940;27;20028;-74
2022/04/11 10:41:56;;;;;;;9.43;4.05;;;;;;;14.07;41.03;101602.88;5103407;28;20027;-74
2022/04/11 10:44:36;;;;;;;8.07;3.97;;;;;;;14.18;43.00;101598.19;5099357;27;20066;-74
2022/04/11 10:47:07;;;;;;;5.15;4.18;;;;;;;14.34;40.70;101587.31;5094416;28;20032;-74
2022/04/11 10:49:48;;;;;;;7.63;3.60;;;;;;;14.43;41.28;101589.69;5105132;27;20039;-82
2022/04/11 10:52:36;;;;;;;7.32;4.50;;;;;;;14.59;41.09;101580.50;5116751;27;20047;-74
2022/04/11 10:55:16;;;;;;;6.28;4.00;;;;;;;14.63;39.30;101568.16;5115101;27;20019;-74
2022/04/11 10:57:43;;;;;;;8.73;4.38;;;;;;;14.77;39.98;101573.00;5115232;27;20106;-74
2022/04/11 11:00:11;;;;;;;5.72;3.60;;;;;;;14.86;39.04;101563.09;5114686;27;20471;-74
2022/04/11 11:03:00;;;;;;;10.52;4.20;;;;;;;14.97;41.13;101566.22;5115408;28;20039;-74
2022/04/11 11:05:32;;;;;;;9.40;4.50;;;;;;;15.05;40.05;101552.03;5114990;28;20055;-74
2022/04/11 11:08:07;;;;;;;8.13;4.32;;;;;;;15.12;40.00;101556.19;5114465;28;20047;-74
2022/04/11 11:10:45;;;;;;;6.03;3.80;;;;;;;15.06;38.47;101549.34;5113021;28;20036;-75
2022/04/11 11:13:39;;;;;;;5.82;4.03;;;;;;;15.03;38.42;101538.09;5098184;28;20119;-75
2022/04/11 11:16:07;;;;;;;6.10;2.88;;;;;;;15.28;37.83;101548.69;5115672;27;20034;-75
2022/04/11 11:18:51;;;;;;;7.50;3.50;;;;;;;15.34;38.21;101543.25;5115035;27;20032;-75